Aviation Digital Data Service (ADDS)

Output produced by TAFs form (1915 UTC 28 February 2015)
found at http://aviationweather.gov/adds/tafs/
 
KLVS 281746Z 2818/0118 19018KT 3SM -SHSN BR SCT008 OVC015 
     TEMPO 2818/2820 3/4SM -SN BR OVC005 
     FM282000 19015G23KT 5SM -SN BR BKN025 OVC040 
     FM282300 20015G23KT 6SM -RASN BR OVC015 
     FM010300 21010G18KT 3SM BR VCSH SCT015 BKN040 
     FM010900 20011KT P6SM SCT008